sensor_id;sensor_type;location;lat;lon;timestamp;pressure;altitude;pressure_sealevel;temperature;humidity
51245;BME280;37840;47.562;18.738;2023-08-08T00:01:31;99680.50;;;15.93;64.60
51245;BME280;37840;47.562;18.738;2023-08-08T00:03:57;99688.09;;;15.97;64.65
51245;BME280;37840;47.562;18.738;2023-08-08T00:06:23;99680.37;;;15.94;64.71
51245;BME280;37840;47.562;18.738;2023-08-08T00:08:49;99684.84;;;16.03;64.69
51245;BME280;37840;47.562;18.738;2023-08-08T00:11:15;99687.84;;;15.90;64.72
51245;BME280;37840;47.562;18.738;2023-08-08T00:13:41;99693.34;;;15.89;64.86
51245;BME280;37840;47.562;18.738;2023-08-08T00:16:07;99692.50;;;15.79;65.21
51245;BME280;37840;47.562;18.738;2023-08-08T00:18:33;99699.72;;;15.68;65.92
51245;BME280;37840;47.562;18.738;2023-08-08T00:20:59;99698.00;;;15.87;65.62
51245;BME280;37840;47.562;18.738;2023-08-08T00:23:25;99700.56;;;15.79;65.58
51245;BME280;37840;47.562;18.738;2023-08-08T00:25:50;99695.19;;;15.79;65.61
51245;BME280;37840;47.562;18.738;2023-08-08T00:28:17;99711.59;;;15.85;65.82
51245;BME280;37840;47.562;18.738;2023-08-08T00:30:44;99704.09;;;15.79;66.13
51245;BME280;37840;47.562;18.738;2023-08-08T00:33:10;99708.59;;;15.79;66.10
51245;BME280;37840;47.562;18.738;2023-08-08T00:35:35;99704.81;;;15.72;66.88
51245;BME280;37840;47.562;18.738;2023-08-08T00:38:01;99707.75;;;15.78;66.72
51245;BME280;37840;47.562;18.738;2023-08-08T00:40:27;99708.16;;;15.93;66.28
51245;BME280;37840;47.562;18.738;2023-08-08T00:42:53;99716.78;;;15.67;67.07
51245;BME280;37840;47.562;18.738;2023-08-08T00:45:19;99726.25;;;15.72;67.59
51245;BME280;37840;47.562;18.738;2023-08-08T00:47:45;99721.59;;;15.74;67.36
51245;BME280;37840;47.562;18.738;2023-08-08T00:50:12;99721.88;;;15.70;67.76
51245;BME280;37840;47.562;18.738;2023-08-08T00:52:38;99732.47;;;15.82;67.23
51245;BME280;37840;47.562;18.738;2023-08-08T00:55:06;99733.72;;;15.87;67.44
51245;BME280;37840;47.562;18.738;2023-08-08T00:57:35;99730.88;;;15.89;67.09
51245;BME280;37840;47.562;18.738;2023-08-08T01:00:08;99725.00;;;15.76;67.58
51245;BME280;37840;47.562;18.738;2023-08-08T01:02:37;99735.72;;;15.76;67.61
51245;BME280;37840;47.562;18.738;2023-08-08T01:05:04;99728.06;;;15.71;67.92
51245;BME280;37840;47.562;18.738;2023-08-08T01:07:38;99732.16;;;15.85;67.59
51245;BME280;37840;47.562;18.738;2023-08-08T01:10:14;99734.69;;;15.67;68.11
51245;BME280;37840;47.562;18.738;2023-08-08T01:12:45;99739.22;;;15.86;67.66
51245;BME280;37840;47.562;18.738;2023-08-08T01:15:13;99730.06;;;15.88;67.73
51245;BME280;37840;47.562;18.738;2023-08-08T01:17:41;99735.41;;;15.88;67.37
51245;BME280;37840;47.562;18.738;2023-08-08T01:20:08;99736.69;;;15.84;67.75
51245;BME280;37840;47.562;18.738;2023-08-08T01:22:39;99732.16;;;15.85;67.76
51245;BME280;37840;47.562;18.738;2023-08-08T01:25:07;99736.69;;;15.84;67.71
51245;BME280;37840;47.562;18.738;2023-08-08T01:27:37;99728.94;;;15.81;68.17
51245;BME280;37840;47.562;18.738;2023-08-08T01:30:04;99725.56;;;15.79;68.12
51245;BME280;37840;47.562;18.738;2023-08-08T01:32:30;99720.47;;;15.76;68.04
51245;BME280;37840;47.562;18.738;2023-08-08T01:34:56;99724.16;;;15.75;68.31
51245;BME280;37840;47.562;18.738;2023-08-08T01:37:30;99722.97;;;15.68;68.10
51245;BME280;37840;47.562;18.738;2023-08-08T01:39:59;99720.03;;;15.61;68.54
51245;BME280;37840;47.562;18.738;2023-08-08T01:42:27;99725.38;;;15.61;68.74
51245;BME280;37840;47.562;18.738;2023-08-08T01:44:53;99722.16;;;15.48;69.16
51245;BME280;37840;47.562;18.738;2023-08-08T01:47:20;99725.69;;;15.58;68.95
51245;BME280;37840;47.562;18.738;2023-08-08T01:49:46;99717.06;;;15.64;68.71
51245;BME280;37840;47.562;18.738;2023-08-08T01:52:12;99722.00;;;15.49;69.03
51245;BME280;37840;47.562;18.738;2023-08-08T01:54:38;99721.59;;;15.54;69.18
51245;BME280;37840;47.562;18.738;2023-08-08T01:57:04;99729.34;;;15.57;69.01
51245;BME280;37840;47.562;18.738;2023-08-08T01:59:30;99725.25;;;15.53;69.21
51245;BME280;37840;47.562;18.738;2023-08-08T02:01:56;99726.50;;;15.49;69.13
51245;BME280;37840;47.562;18.738;2023-08-08T02:04:22;99728.78;;;15.54;69.26
51245;BME280;37840;47.562;18.738;2023-08-08T02:06:48;99731.75;;;15.41;69.54
51245;BME280;37840;47.562;18.738;2023-08-08T02:09:13;99738.06;;;15.40;69.81
51245;BME280;37840;47.562;18.738;2023-08-08T02:11:42;99737.81;;;15.43;69.69
51245;BME280;37840;47.562;18.738;2023-08-08T02:14:08;99737.53;;;15.46;69.64
51245;BME280;37840;47.562;18.738;2023-08-08T02:16:34;99745.44;;;15.47;69.54
51245;BME280;37840;47.562;18.738;2023-08-08T02:19:00;99743.72;;;15.46;69.52
51245;BME280;37840;47.562;18.738;2023-08-08T02:21:26;99728.66;;;15.45;69.63
51245;BME280;37840;47.562;18.738;2023-08-08T02:23:52;99731.59;;;15.33;70.06
51245;BME280;37840;47.562;18.738;2023-08-08T02:26:18;99733.84;;;15.27;70.31
51245;BME280;37840;47.562;18.738;2023-08-08T02:28:44;99736.50;;;15.27;70.44
51245;BME280;37840;47.562;18.738;2023-08-08T02:31:10;99737.38;;;15.28;70.42
51245;BME280;37840;47.562;18.738;2023-08-08T02:33:36;99744.13;;;15.22;70.51
51245;BME280;37840;47.562;18.738;2023-08-08T02:36:02;99747.94;;;15.29;70.44
51245;BME280;37840;47.562;18.738;2023-08-08T02:38:28;99745.25;;;15.29;70.33
51245;BME280;37840;47.562;18.738;2023-08-08T02:40:54;99749.63;;;15.21;70.52
51245;BME280;37840;47.562;18.738;2023-08-08T02:43:20;99741.44;;;15.22;70.46
51245;BME280;37840;47.562;18.738;2023-08-08T02:45:45;99743.13;;;15.23;70.36
51245;BME280;37840;47.562;18.738;2023-08-08T02:48:11;99751.88;;;15.25;70.40
51245;BME280;37840;47.562;18.738;2023-08-08T02:50:37;99739.47;;;15.24;70.22
51245;BME280;37840;47.562;18.738;2023-08-08T02:53:03;99754.72;;;15.24;70.20
51245;BME280;37840;47.562;18.738;2023-08-08T02:55:29;99759.06;;;15.15;70.28
51245;BME280;37840;47.562;18.738;2023-08-08T02:57:55;99754.56;;;15.16;70.32
51245;BME280;37840;47.562;18.738;2023-08-08T03:00:21;99758.06;;;15.16;70.32
51245;BME280;37840;47.562;18.738;2023-08-08T03:02:48;99766.81;;;15.18;70.19
51245;BME280;37840;47.562;18.738;2023-08-08T03:05:14;99769.50;;;15.18;70.04
51245;BME280;37840;47.562;18.738;2023-08-08T03:07:43;99769.78;;;15.25;69.80
51245;BME280;37840;47.562;18.738;2023-08-08T03:10:09;99776.16;;;15.24;69.74
51245;BME280;37840;47.562;18.738;2023-08-08T03:12:34;99774.44;;;15.13;70.06
51245;BME280;37840;47.562;18.738;2023-08-08T03:15:00;99786.41;;;15.09;70.22
51245;BME280;37840;47.562;18.738;2023-08-08T03:17:26;99779.16;;;15.00;70.49
51245;BME280;37840;47.562;18.738;2023-08-08T03:19:52;99791.59;;;15.01;70.75
51245;BME280;37840;47.562;18.738;2023-08-08T03:22:18;99789.63;;;15.03;70.31
51245;BME280;37840;47.562;18.738;2023-08-08T03:24:44;99781.84;;;15.00;70.36
51245;BME280;37840;47.562;18.738;2023-08-08T03:27:10;99788.91;;;15.01;70.49
51245;BME280;37840;47.562;18.738;2023-08-08T03:29:36;99791.44;;;15.02;70.58
51245;BME280;37840;47.562;18.738;2023-08-08T03:32:03;99788.63;;;15.04;70.14
51245;BME280;37840;47.562;18.738;2023-08-08T03:34:30;99793.31;;;15.12;69.93
51245;BME280;37840;47.562;18.738;2023-08-08T03:36:56;99792.06;;;15.16;69.58
51245;BME280;37840;47.562;18.738;2023-08-08T03:39:22;99802.91;;;15.14;69.34
51245;BME280;37840;47.562;18.738;2023-08-08T03:41:48;99810.22;;;15.12;69.57
51245;BME280;37840;47.562;18.738;2023-08-08T03:44:14;99806.56;;;15.13;69.02
51245;BME280;37840;47.562;18.738;2023-08-08T03:46:39;99811.22;;;15.21;69.11
51245;BME280;37840;47.562;18.738;2023-08-08T03:49:05;99809.69;;;15.18;69.32
51245;BME280;37840;47.562;18.738;2023-08-08T03:51:31;99801.50;;;15.20;69.12
51245;BME280;37840;47.562;18.738;2023-08-08T03:53:57;99804.28;;;15.08;69.48
51245;BME280;37840;47.562;18.738;2023-08-08T03:56:23;99808.81;;;15.08;69.91
51245;BME280;37840;47.562;18.738;2023-08-08T03:58:49;99814.88;;;15.10;69.55
51245;BME280;37840;47.562;18.738;2023-08-08T04:01:15;99823.31;;;15.05;69.77
51245;BME280;37840;47.562;18.738;2023-08-08T04:03:41;99822.00;;;15.00;69.91
51245;BME280;37840;47.562;18.738;2023-08-08T04:06:07;99817.19;;;14.94;70.04
51245;BME280;37840;47.562;18.738;2023-08-08T04:08:33;99817.47;;;14.91;70.11
51245;BME280;37840;47.562;18.738;2023-08-08T04:10:58;99818.37;;;15.01;69.96
51245;BME280;37840;47.562;18.738;2023-08-08T04:13:24;99821.19;;;14.99;69.61
51245;BME280;37840;47.562;18.738;2023-08-08T04:15:50;99826.81;;;14.96;69.57
51245;BME280;37840;47.562;18.738;2023-08-08T04:18:18;99826.94;;;14.95;69.51
51245;BME280;37840;47.562;18.738;2023-08-08T04:20:45;99833.59;;;15.00;69.23
51245;BME280;37840;47.562;18.738;2023-08-08T04:23:13;99829.62;;;14.95;69.61
51245;BME280;37840;47.562;18.738;2023-08-08T04:25:39;99826.94;;;14.95;69.14
51245;BME280;37840;47.562;18.738;2023-08-08T04:28:05;99830.75;;;14.92;69.34
51245;BME280;37840;47.562;18.738;2023-08-08T04:30:31;99833.72;;;14.99;69.15
51245;BME280;37840;47.562;18.738;2023-08-08T04:32:57;99827.38;;;15.00;69.02
51245;BME280;37840;47.562;18.738;2023-08-08T04:35:23;99829.62;;;15.04;68.78
51245;BME280;37840;47.562;18.738;2023-08-08T04:37:50;99829.69;;;15.14;68.65
51245;BME280;37840;47.562;18.738;2023-08-08T04:40:16;99822.91;;;15.10;68.12
51245;BME280;37840;47.562;18.738;2023-08-08T04:42:42;99830.34;;;15.06;68.35
51245;BME280;37840;47.562;18.738;2023-08-08T04:45:08;99831.53;;;15.14;68.21
51245;BME280;37840;47.562;18.738;2023-08-08T04:47:34;99823.09;;;15.28;68.04
51245;BME280;37840;47.562;18.738;2023-08-08T04:50:00;99824.06;;;15.27;67.74
51245;BME280;37840;47.562;18.738;2023-08-08T04:52:26;99824.66;;;15.31;67.31
51245;BME280;37840;47.562;18.738;2023-08-08T04:54:52;99822.69;;;15.33;67.42
51245;BME280;37840;47.562;18.738;2023-08-08T04:57:18;99831.03;;;15.39;67.78
51245;BME280;37840;47.562;18.738;2023-08-08T04:59:44;99834.00;;;15.46;67.28
51245;BME280;37840;47.562;18.738;2023-08-08T05:02:10;99836.66;;;15.46;67.56
51245;BME280;37840;47.562;18.738;2023-08-08T05:04:42;99838.25;;;15.58;67.23
51245;BME280;37840;47.562;18.738;2023-08-08T05:07:08;99837.97;;;15.52;67.58
51245;BME280;37840;47.562;18.738;2023-08-08T05:09:34;99831.59;;;15.53;67.42
51245;BME280;37840;47.562;18.738;2023-08-08T05:12:00;99837.25;;;15.59;67.01
51245;BME280;37840;47.562;18.738;2023-08-08T05:14:25;99835.28;;;15.61;67.56
51245;BME280;37840;47.562;18.738;2023-08-08T05:16:51;99841.53;;;15.72;66.70
51245;BME280;37840;47.562;18.738;2023-08-08T05:19:17;99857.19;;;15.76;66.72
51245;BME280;37840;47.562;18.738;2023-08-08T05:21:43;99858.91;;;15.77;66.77
51245;BME280;37840;47.562;18.738;2023-08-08T05:24:09;99861.44;;;15.79;66.91
51245;BME280;37840;47.562;18.738;2023-08-08T05:26:35;99859.88;;;15.76;66.54
51245;BME280;37840;47.562;18.738;2023-08-08T05:29:01;99870.91;;;15.93;66.22
51245;BME280;37840;47.562;18.738;2023-08-08T05:31:28;99877.13;;;16.03;66.04
51245;BME280;37840;47.562;18.738;2023-08-08T05:33:54;99881.94;;;16.09;65.35
51245;BME280;37840;47.562;18.738;2023-08-08T05:36:19;99886.87;;;16.14;65.50
51245;BME280;37840;47.562;18.738;2023-08-08T05:38:45;99885.47;;;16.09;65.53
51245;BME280;37840;47.562;18.738;2023-08-08T05:41:11;99896.75;;;16.13;65.71
51245;BME280;37840;47.562;18.738;2023-08-08T05:43:37;99896.16;;;16.19;65.56
51245;BME280;37840;47.562;18.738;2023-08-08T05:46:03;99904.09;;;16.30;64.98
51245;BME280;37840;47.562;18.738;2023-08-08T05:48:29;99909.87;;;16.36;64.85
51245;BME280;37840;47.562;18.738;2023-08-08T05:50:55;99908.44;;;16.51;64.18
51245;BME280;37840;47.562;18.738;2023-08-08T05:53:24;99909.28;;;16.61;64.98
51245;BME280;37840;47.562;18.738;2023-08-08T05:55:50;99915.91;;;16.57;65.29
51245;BME280;37840;47.562;18.738;2023-08-08T05:58:16;99913.62;;;16.72;64.40
51245;BME280;37840;47.562;18.738;2023-08-08T06:00:42;99920.28;;;16.78;63.77
51245;BME280;37840;47.562;18.738;2023-08-08T06:03:08;99912.25;;;16.87;63.70
51245;BME280;37840;47.562;18.738;2023-08-08T06:05:34;99915.78;;;16.88;64.69
51245;BME280;37840;47.562;18.738;2023-08-08T06:08:00;99917.63;;;16.87;65.08
51245;BME280;37840;47.562;18.738;2023-08-08T06:10:26;99910.94;;;16.91;65.34
51245;BME280;37840;47.562;18.738;2023-08-08T06:12:52;99916.16;;;17.03;63.59
51245;BME280;37840;47.562;18.738;2023-08-08T06:15:18;99914.22;;;17.23;63.44
51245;BME280;37840;47.562;18.738;2023-08-08T06:17:44;99919.75;;;17.21;63.24
51245;BME280;37840;47.562;18.738;2023-08-08T06:20:10;99925.97;;;17.22;63.13
51245;BME280;37840;47.562;18.738;2023-08-08T06:22:37;99919.97;;;17.38;64.00
51245;BME280;37840;47.562;18.738;2023-08-08T06:25:03;99919.63;;;17.50;63.54
51245;BME280;37840;47.562;18.738;2023-08-08T06:27:29;99918.28;;;17.64;63.41
51245;BME280;37840;47.562;18.738;2023-08-08T06:29:56;99915.72;;;17.90;61.08
51245;BME280;37840;47.562;18.738;2023-08-08T06:32:22;99914.66;;;18.01;60.25
51245;BME280;37840;47.562;18.738;2023-08-08T06:34:47;99923.56;;;18.02;60.72
51245;BME280;37840;47.562;18.738;2023-08-08T06:37:13;99923.81;;;18.08;59.51
51245;BME280;37840;47.562;18.738;2023-08-08T06:39:39;99921.34;;;17.97;60.51
51245;BME280;37840;47.562;18.738;2023-08-08T06:42:06;99917.75;;;18.06;59.67
51245;BME280;37840;47.562;18.738;2023-08-08T06:44:32;99921.28;;;18.07;59.39
51245;BME280;37840;47.562;18.738;2023-08-08T06:46:58;99915.44;;;18.11;59.00
51245;BME280;37840;47.562;18.738;2023-08-08T06:49:24;99916.38;;;18.20;59.21
51245;BME280;37840;47.562;18.738;2023-08-08T06:51:50;99919.03;;;18.38;58.60
51245;BME280;37840;47.562;18.738;2023-08-08T06:54:16;99911.81;;;18.39;59.03
51245;BME280;37840;47.562;18.738;2023-08-08T06:56:42;99915.91;;;18.43;58.65
51245;BME280;37840;47.562;18.738;2023-08-08T06:59:07;99913.56;;;18.48;58.45
51245;BME280;37840;47.562;18.738;2023-08-08T07:01:33;99906.62;;;18.63;58.50
51245;BME280;37840;47.562;18.738;2023-08-08T07:03:59;99921.09;;;18.80;56.60
51245;BME280;37840;47.562;18.738;2023-08-08T07:06:25;99912.91;;;18.72;56.37
51245;BME280;37840;47.562;18.738;2023-08-08T07:08:51;99910.31;;;18.62;55.99
51245;BME280;37840;47.562;18.738;2023-08-08T07:11:17;99915.59;;;18.72;56.33
51245;BME280;37840;47.562;18.738;2023-08-08T07:13:43;99912.16;;;18.80;56.73
51245;BME280;37840;47.562;18.738;2023-08-08T07:16:09;99914.63;;;18.73;55.57
51245;BME280;37840;47.562;18.738;2023-08-08T07:18:35;99916.13;;;18.75;57.23
51245;BME280;37840;47.562;18.738;2023-08-08T07:21:01;99926.00;;;18.85;57.02
51245;BME280;37840;47.562;18.738;2023-08-08T07:23:27;99931.09;;;18.88;56.65
51245;BME280;37840;47.562;18.738;2023-08-08T07:25:53;99934.03;;;19.03;56.73
51245;BME280;37840;47.562;18.738;2023-08-08T07:28:18;99934.44;;;19.16;57.99
51245;BME280;37840;47.562;18.738;2023-08-08T07:30:45;99943.66;;;19.40;56.42
51245;BME280;37840;47.562;18.738;2023-08-08T07:33:11;99942.53;;;19.50;54.68
51245;BME280;37840;47.562;18.738;2023-08-08T07:35:36;99953.00;;;19.53;55.64
51245;BME280;37840;47.562;18.738;2023-08-08T07:38:02;99944.34;;;19.76;54.68
51245;BME280;37840;47.562;18.738;2023-08-08T07:40:29;99946.25;;;19.84;53.79
51245;BME280;37840;47.562;18.738;2023-08-08T07:42:55;99938.97;;;19.84;53.73
51245;BME280;37840;47.562;18.738;2023-08-08T07:45:20;99949.97;;;19.91;55.42
51245;BME280;37840;47.562;18.738;2023-08-08T07:47:46;99948.81;;;19.93;55.17
51245;BME280;37840;47.562;18.738;2023-08-08T07:50:14;99938.53;;;20.05;55.05
51245;BME280;37840;47.562;18.738;2023-08-08T07:52:40;99939.25;;;20.32;54.02
51245;BME280;37840;47.562;18.738;2023-08-08T07:55:06;99941.44;;;20.28;54.06
51245;BME280;37840;47.562;18.738;2023-08-08T07:57:32;99939.59;;;20.53;52.85
51245;BME280;37840;47.562;18.738;2023-08-08T08:00:02;99951.75;;;20.49;52.60
51245;BME280;37840;47.562;18.738;2023-08-08T08:02:34;99940.59;;;20.44;52.95
51245;BME280;37840;47.562;18.738;2023-08-08T08:05:00;99936.38;;;20.42;53.76
51245;BME280;37840;47.562;18.738;2023-08-08T08:07:26;99942.97;;;20.55;51.57
51245;BME280;37840;47.562;18.738;2023-08-08T08:09:52;99940.44;;;20.54;51.10
51245;BME280;37840;47.562;18.738;2023-08-08T08:12:18;99945.50;;;20.41;51.39
51245;BME280;37840;47.562;18.738;2023-08-08T08:14:45;99949.56;;;20.45;50.99
51245;BME280;37840;47.562;18.738;2023-08-08T08:17:11;99960.53;;;20.43;53.18
51245;BME280;37840;47.562;18.738;2023-08-08T08:19:37;99955.66;;;20.47;54.85
51245;BME280;37840;47.562;18.738;2023-08-08T08:22:03;99961.22;;;20.45;54.19
51245;BME280;37840;47.562;18.738;2023-08-08T08:24:29;99970.72;;;20.58;52.31
51245;BME280;37840;47.562;18.738;2023-08-08T08:26:55;99969.97;;;20.39;52.22
51245;BME280;37840;47.562;18.738;2023-08-08T08:29:21;99974.25;;;20.58;53.17
51245;BME280;37840;47.562;18.738;2023-08-08T08:31:47;99968.31;;;20.38;53.90
51245;BME280;37840;47.562;18.738;2023-08-08T08:34:13;99969.81;;;20.57;52.14
51245;BME280;37840;47.562;18.738;2023-08-08T08:36:39;99970.84;;;20.56;51.65
51245;BME280;37840;47.562;18.738;2023-08-08T08:39:05;99973.88;;;20.36;52.58
51245;BME280;37840;47.562;18.738;2023-08-08T08:41:31;99978.47;;;20.61;52.21
51245;BME280;37840;47.562;18.738;2023-08-08T08:44:01;99974.38;;;20.40;52.80
51245;BME280;37840;47.562;18.738;2023-08-08T08:46:28;99972.06;;;20.62;53.27
51245;BME280;37840;47.562;18.738;2023-08-08T08:48:55;99987.59;;;20.84;53.49
51245;BME280;37840;47.562;18.738;2023-08-08T08:51:23;99986.22;;;20.72;52.01
51245;BME280;37840;47.562;18.738;2023-08-08T08:53:50;99985.37;;;20.63;52.07
51245;BME280;37840;47.562;18.738;2023-08-08T08:56:16;99980.50;;;20.59;50.55
51245;BME280;37840;47.562;18.738;2023-08-08T08:58:42;99979.31;;;21.02;50.73
51245;BME280;37840;47.562;18.738;2023-08-08T09:01:09;99978.09;;;21.13;49.15
51245;BME280;37840;47.562;18.738;2023-08-08T09:03:36;99976.06;;;21.23;50.11
51245;BME280;37840;47.562;18.738;2023-08-08T09:06:05;99977.75;;;21.08;49.85
51245;BME280;37840;47.562;18.738;2023-08-08T09:08:31;99979.63;;;21.07;50.48
51245;BME280;37840;47.562;18.738;2023-08-08T09:10:57;99975.03;;;21.16;50.41
51245;BME280;37840;47.562;18.738;2023-08-08T09:13:23;99975.19;;;21.31;52.56
51245;BME280;37840;47.562;18.738;2023-08-08T09:15:52;99981.13;;;21.43;53.22
51245;BME280;37840;47.562;18.738;2023-08-08T09:18:18;99972.47;;;21.47;52.11
51245;BME280;37840;47.562;18.738;2023-08-08T09:20:51;99982.78;;;21.35;51.35
51245;BME280;37840;47.562;18.738;2023-08-08T09:23:17;99976.63;;;21.66;50.65
51245;BME280;37840;47.562;18.738;2023-08-08T09:25:43;99985.06;;;21.63;49.03
51245;BME280;37840;47.562;18.738;2023-08-08T09:28:09;99973.84;;;21.43;49.83
51245;BME280;37840;47.562;18.738;2023-08-08T09:30:35;99973.16;;;21.16;51.04
51245;BME280;37840;47.562;18.738;2023-08-08T09:33:01;99967.31;;;20.88;50.49
51245;BME280;37840;47.562;18.738;2023-08-08T09:35:30;99976.59;;;21.10;50.61
51245;BME280;37840;47.562;18.738;2023-08-08T09:37:56;99971.03;;;20.87;49.73
51245;BME280;37840;47.562;18.738;2023-08-08T09:40:23;99970.00;;;20.80;50.56
51245;BME280;37840;47.562;18.738;2023-08-08T09:42:51;99972.41;;;20.75;50.53
51245;BME280;37840;47.562;18.738;2023-08-08T09:45:17;99962.41;;;20.84;51.54
51245;BME280;37840;47.562;18.738;2023-08-08T09:47:43;99966.81;;;20.85;51.62
51245;BME280;37840;47.562;18.738;2023-08-08T09:50:09;99963.09;;;20.86;51.72
51245;BME280;37840;47.562;18.738;2023-08-08T09:52:36;99966.97;;;21.00;51.86
51245;BME280;37840;47.562;18.738;2023-08-08T09:55:07;99965.41;;;21.30;52.57
51245;BME280;37840;47.562;18.738;2023-08-08T09:57:34;99968.47;;;21.10;51.39
51245;BME280;37840;47.562;18.738;2023-08-08T10:00:01;99968.63;;;21.17;51.45
51245;BME280;37840;47.562;18.738;2023-08-08T10:02:30;99963.00;;;21.35;52.81
51245;BME280;37840;47.562;18.738;2023-08-08T10:04:57;99965.31;;;21.63;51.74
51245;BME280;37840;47.562;18.738;2023-08-08T10:07:24;99963.94;;;21.67;50.59
51245;BME280;37840;47.562;18.738;2023-08-08T10:09:50;99952.84;;;21.45;50.36
51245;BME280;37840;47.562;18.738;2023-08-08T10:12:16;99951.88;;;21.30;48.69
51245;BME280;37840;47.562;18.738;2023-08-08T10:14:44;99954.91;;;21.27;50.79
51245;BME280;37840;47.562;18.738;2023-08-08T10:17:14;99953.53;;;21.31;50.76
51245;BME280;37840;47.562;18.738;2023-08-08T10:19:40;99955.91;;;21.34;50.39
51245;BME280;37840;47.562;18.738;2023-08-08T10:22:14;99955.03;;;21.33;49.42
51245;BME280;37840;47.562;18.738;2023-08-08T10:24:40;99946.47;;;21.30;48.88
51245;BME280;37840;47.562;18.738;2023-08-08T10:27:06;99947.97;;;21.24;50.52
51245;BME280;37840;47.562;18.738;2023-08-08T10:29:33;99948.53;;;21.11;50.92
51245;BME280;37840;47.562;18.738;2023-08-08T10:32:04;99946.47;;;21.30;49.09
51245;BME280;37840;47.562;18.738;2023-08-08T10:34:39;99943.44;;;21.16;50.17
51245;BME280;37840;47.562;18.738;2023-08-08T10:37:10;99948.16;;;21.14;50.83
51245;BME280;37840;47.562;18.738;2023-08-08T10:39:37;99944.59;;;21.22;50.04
51245;BME280;37840;47.562;18.738;2023-08-08T10:42:04;99948.50;;;21.28;49.18
51245;BME280;37840;47.562;18.738;2023-08-08T10:44:30;99949.19;;;21.13;50.43
51245;BME280;37840;47.562;18.738;2023-08-08T10:46:56;99943.97;;;21.04;49.90
51245;BME280;37840;47.562;18.738;2023-08-08T10:49:23;99937.72;;;20.95;51.30
51245;BME280;37840;47.562;18.738;2023-08-08T10:51:50;99943.66;;;20.98;49.86
51245;BME280;37840;47.562;18.738;2023-08-08T10:54:22;99935.91;;;20.87;49.65
51245;BME280;37840;47.562;18.738;2023-08-08T10:56:54;99928.78;;;20.86;48.95
51245;BME280;37840;47.562;18.738;2023-08-08T11:01:50;99936.03;;;21.10;49.36
51245;BME280;37840;47.562;18.738;2023-08-08T11:04:22;99936.66;;;21.21;49.53
51245;BME280;37840;47.562;18.738;2023-08-08T11:06:55;99935.81;;;21.20;49.32
51245;BME280;37840;47.562;18.738;2023-08-08T11:09:22;99932.41;;;21.34;50.30
51245;BME280;37840;47.562;18.738;2023-08-08T11:11:49;99927.09;;;21.57;50.67
51245;BME280;37840;47.562;18.738;2023-08-08T11:14:17;99928.12;;;21.88;51.19
51245;BME280;37840;47.562;18.738;2023-08-08T11:16:44;99923.22;;;21.91;50.36
51245;BME280;37840;47.562;18.738;2023-08-08T11:19:11;99925.44;;;21.88;51.14
51245;BME280;37840;47.562;18.738;2023-08-08T11:21:39;99920.44;;;21.76;50.99
51245;BME280;37840;47.562;18.738;2023-08-08T11:24:06;99922.81;;;21.71;49.84
51245;BME280;37840;47.562;18.738;2023-08-08T11:26:34;99916.41;;;21.64;48.54
51245;BME280;37840;47.562;18.738;2023-08-08T11:29:01;99913.75;;;21.87;49.12
51245;BME280;37840;47.562;18.738;2023-08-08T11:31:28;99919.88;;;21.81;49.58
51245;BME280;37840;47.562;18.738;2023-08-08T11:33:55;99912.09;;;21.78;49.11
51245;BME280;37840;47.562;18.738;2023-08-08T11:36:22;99906.06;;;21.99;49.66
51245;BME280;37840;47.562;18.738;2023-08-08T11:38:50;99904.31;;;21.83;45.33
51245;BME280;37840;47.562;18.738;2023-08-08T11:41:19;99903.13;;;22.09;48.97
51245;BME280;37840;47.562;18.738;2023-08-08T11:43:47;99911.69;;;21.97;47.05
51245;BME280;37840;47.562;18.738;2023-08-08T11:46:14;99899.69;;;21.92;46.74
51245;BME280;37840;47.562;18.738;2023-08-08T11:48:41;99898.72;;;22.08;48.69
51245;BME280;37840;47.562;18.738;2023-08-08T11:51:08;99890.44;;;22.09;47.10
51245;BME280;37840;47.562;18.738;2023-08-08T11:53:34;99894.59;;;22.43;47.86
51245;BME280;37840;47.562;18.738;2023-08-08T11:56:02;99902.84;;;22.50;48.37
51245;BME280;37840;47.562;18.738;2023-08-08T11:58:29;99894.31;;;22.38;46.60
51245;BME280;37840;47.562;18.738;2023-08-08T12:00:56;99890.84;;;22.29;44.86
51245;BME280;37840;47.562;18.738;2023-08-08T12:03:25;99890.16;;;22.27;46.34
51245;BME280;37840;47.562;18.738;2023-08-08T12:05:51;99892.00;;;22.27;46.57
51245;BME280;37840;47.562;18.738;2023-08-08T12:08:21;99882.31;;;22.32;45.98
51245;BME280;37840;47.562;18.738;2023-08-08T12:10:50;99881.94;;;22.73;43.15
51245;BME280;37840;47.562;18.738;2023-08-08T12:13:22;99879.53;;;22.64;42.83
51245;BME280;37840;47.562;18.738;2023-08-08T12:15:49;99881.22;;;22.42;44.22
51245;BME280;37840;47.562;18.738;2023-08-08T12:18:19;99879.72;;;22.16;44.46
51245;BME280;37840;47.562;18.738;2023-08-08T12:20:45;99878.75;;;22.09;46.22
51245;BME280;37840;47.562;18.738;2023-08-08T12:23:12;99883.78;;;22.12;44.74
51245;BME280;37840;47.562;18.738;2023-08-08T12:25:38;99885.56;;;22.05;43.56
51245;BME280;37840;47.562;18.738;2023-08-08T12:28:05;99884.22;;;22.01;44.84
51245;BME280;37840;47.562;18.738;2023-08-08T12:30:31;99874.59;;;21.98;46.24
51245;BME280;37840;47.562;18.738;2023-08-08T12:32:57;99876.47;;;21.97;44.39
51245;BME280;37840;47.562;18.738;2023-08-08T12:35:23;99877.59;;;22.03;44.25
51245;BME280;37840;47.562;18.738;2023-08-08T12:37:52;99881.91;;;21.97;43.71
51245;BME280;37840;47.562;18.738;2023-08-08T12:40:18;99887.66;;;21.94;44.32
51245;BME280;37840;47.562;18.738;2023-08-08T12:42:44;99876.69;;;21.88;45.77
51245;BME280;37840;47.562;18.738;2023-08-08T12:45:10;99880.19;;;21.96;46.03
51245;BME280;37840;47.562;18.738;2023-08-08T12:47:36;99879.41;;;22.11;45.26
51245;BME280;37840;47.562;18.738;2023-08-08T12:50:04;99877.47;;;21.96;44.23